Terminal Aerodrome Forecast
Issued by NWS

Home | Current Version | Previous Version | Text Only | Print | Product List | Glossary On
Versions: 1 2 3 4 5 6 7 8 9 10 11 12 13 14 15 16 17 18 19 20 21 22 23 24 25 26 27 28 29 30 31 32 33 34 35 36 37
000
FTUS43 KDLH 220200 AAA
TAFBRD
TAF AMD
KBRD 220202Z 2202/2224 08005KT 4SM BR VCSH OVC005
      TEMPO 2202/2206 1SM -DZ BR OVC004
     FM220600 VRB03KT 1 1/2SM BR OVC004
      TEMPO 2208/2212 3/4SM BR VV004
     FM221500 03004KT 6SM BR OVC010
     FM221700 02004KT P6SM BKN018
     FM221900 02004KT P6SM BKN050=

USA.gov is the U.S. government's official web portal to all federal, state and local government web resources and services.